sensor_id;sensor_type;location;lat;lon;timestamp;P1;durP1;ratioP1;P2;durP2;ratioP2
64832;SDS011;51290;45.060;38.948;2022-12-29T00:01:32;5.35;;;2.63;;
64832;SDS011;51290;45.060;38.948;2022-12-29T00:03:58;4.32;;;2.40;;
64832;SDS011;51290;45.060;38.948;2022-12-29T00:06:25;7.50;;;2.28;;
64832;SDS011;51290;45.060;38.948;2022-12-29T00:08:51;5.80;;;2.85;;
64832;SDS011;51290;45.060;38.948;2022-12-29T00:11:18;5.55;;;3.25;;
64832;SDS011;51290;45.060;38.948;2022-12-29T00:13:46;6.80;;;3.03;;
64832;SDS011;51290;45.060;38.948;2022-12-29T00:16:30;2.92;;;1.83;;
64832;SDS011;51290;45.060;38.948;2022-12-29T00:18:57;3.35;;;2.42;;
64832;SDS011;51290;45.060;38.948;2022-12-29T00:21:24;3.15;;;1.83;;
64832;SDS011;51290;45.060;38.948;2022-12-29T00:24:09;4.30;;;2.95;;
64832;SDS011;51290;45.060;38.948;2022-12-29T00:29:46;3.65;;;2.35;;
64832;SDS011;51290;45.060;38.948;2022-12-29T00:32:31;3.78;;;2.35;;
64832;SDS011;51290;45.060;38.948;2022-12-29T00:35:22;3.85;;;2.80;;
64832;SDS011;51290;45.060;38.948;2022-12-29T00:37:49;8.68;;;2.95;;
64832;SDS011;51290;45.060;38.948;2022-12-29T00:40:34;3.73;;;2.60;;
64832;SDS011;51290;45.060;38.948;2022-12-29T00:43:20;4.03;;;2.45;;
64832;SDS011;51290;45.060;38.948;2022-12-29T00:46:04;3.38;;;2.67;;
64832;SDS011;51290;45.060;38.948;2022-12-29T00:48:30;6.95;;;3.00;;
64832;SDS011;51290;45.060;38.948;2022-12-29T00:51:14;6.90;;;3.58;;
64832;SDS011;51290;45.060;38.948;2022-12-29T00:53:40;5.50;;;2.22;;
64832;SDS011;51290;45.060;38.948;2022-12-29T00:56:06;5.75;;;3.17;;
64832;SDS011;51290;45.060;38.948;2022-12-29T00:58:32;2.53;;;2.13;;
64832;SDS011;51290;45.060;38.948;2022-12-29T01:01:05;7.55;;;2.25;;
64832;SDS011;51290;45.060;38.948;2022-12-29T01:03:33;6.22;;;3.08;;
64832;SDS011;51290;45.060;38.948;2022-12-29T01:06:01;4.32;;;2.60;;
64832;SDS011;51290;45.060;38.948;2022-12-29T01:08:29;2.15;;;1.95;;
64832;SDS011;51290;45.060;38.948;2022-12-29T01:11:06;2.78;;;2.17;;
64832;SDS011;51290;45.060;38.948;2022-12-29T01:13:34;8.45;;;3.00;;
64832;SDS011;51290;45.060;38.948;2022-12-29T01:16:01;4.30;;;2.95;;
64832;SDS011;51290;45.060;38.948;2022-12-29T01:18:27;9.45;;;2.15;;
64832;SDS011;51290;45.060;38.948;2022-12-29T01:21:00;5.03;;;2.22;;
64832;SDS011;51290;45.060;38.948;2022-12-29T01:23:27;6.68;;;3.33;;
64832;SDS011;51290;45.060;38.948;2022-12-29T01:25:54;9.32;;;3.60;;
64832;SDS011;51290;45.060;38.948;2022-12-29T01:28:21;4.85;;;2.72;;
64832;SDS011;51290;45.060;38.948;2022-12-29T01:30:47;6.38;;;2.38;;
64832;SDS011;51290;45.060;38.948;2022-12-29T01:33:13;5.97;;;3.70;;
64832;SDS011;51290;45.060;38.948;2022-12-29T01:35:39;6.15;;;2.35;;
64832;SDS011;51290;45.060;38.948;2022-12-29T01:38:05;4.68;;;3.42;;
64832;SDS011;51290;45.060;38.948;2022-12-29T01:40:31;4.57;;;2.08;;
64832;SDS011;51290;45.060;38.948;2022-12-29T01:42:58;2.72;;;1.80;;
64832;SDS011;51290;45.060;38.948;2022-12-29T01:45:24;4.38;;;2.75;;
64832;SDS011;51290;45.060;38.948;2022-12-29T01:47:51;5.63;;;3.78;;
64832;SDS011;51290;45.060;38.948;2022-12-29T01:53:15;5.15;;;4.15;;
64832;SDS011;51290;45.060;38.948;2022-12-29T01:55:51;7.90;;;3.50;;
64832;SDS011;51290;45.060;38.948;2022-12-29T01:58:21;5.32;;;3.33;;
64832;SDS011;51290;45.060;38.948;2022-12-29T02:00:50;2.30;;;2.00;;
64832;SDS011;51290;45.060;38.948;2022-12-29T02:03:16;3.80;;;2.58;;
64832;SDS011;51290;45.060;38.948;2022-12-29T02:08:42;2.58;;;2.10;;
64832;SDS011;51290;45.060;38.948;2022-12-29T02:11:11;9.05;;;3.25;;
64832;SDS011;51290;45.060;38.948;2022-12-29T02:13:39;5.75;;;2.95;;
64832;SDS011;51290;45.060;38.948;2022-12-29T02:28:27;2.38;;;2.15;;
64832;SDS011;51290;45.060;38.948;2022-12-29T02:33:01;5.47;;;2.92;;
64832;SDS011;51290;45.060;38.948;2022-12-29T02:41:40;5.95;;;2.88;;
64832;SDS011;51290;45.060;38.948;2022-12-29T02:44:16;4.05;;;2.83;;
64832;SDS011;51290;45.060;38.948;2022-12-29T02:49:42;4.20;;;2.15;;
64832;SDS011;51290;45.060;38.948;2022-12-29T02:52:37;12.70;;;3.33;;
64832;SDS011;51290;45.060;38.948;2022-12-29T02:55:10;1.65;;;1.52;;
64832;SDS011;51290;45.060;38.948;2022-12-29T02:57:37;5.88;;;2.92;;
64832;SDS011;51290;45.060;38.948;2022-12-29T03:00:05;10.80;;;2.90;;
64832;SDS011;51290;45.060;38.948;2022-12-29T03:05:48;2.65;;;2.15;;
64832;SDS011;51290;45.060;38.948;2022-12-29T03:08:44;2.85;;;1.75;;
64832;SDS011;51290;45.060;38.948;2022-12-29T03:11:18;4.38;;;2.33;;
64832;SDS011;51290;45.060;38.948;2022-12-29T03:14:06;3.65;;;1.90;;
64832;SDS011;51290;45.060;38.948;2022-12-29T03:20:04;4.97;;;2.30;;
64832;SDS011;51290;45.060;38.948;2022-12-29T03:25:30;2.65;;;2.08;;
64832;SDS011;51290;45.060;38.948;2022-12-29T03:28:02;2.25;;;1.77;;
64832;SDS011;51290;45.060;38.948;2022-12-29T03:30:48;2.95;;;2.20;;
64832;SDS011;51290;45.060;38.948;2022-12-29T03:36:05;4.43;;;2.38;;
64832;SDS011;51290;45.060;38.948;2022-12-29T03:38:36;4.13;;;3.47;;
64832;SDS011;51290;45.060;38.948;2022-12-29T03:43:57;15.68;;;3.22;;
64832;SDS011;51290;45.060;38.948;2022-12-29T03:46:23;6.95;;;2.38;;
64832;SDS011;51290;45.060;38.948;2022-12-29T03:48:50;6.93;;;3.17;;
64832;SDS011;51290;45.060;38.948;2022-12-29T03:51:16;5.43;;;2.15;;
64832;SDS011;51290;45.060;38.948;2022-12-29T03:53:42;19.83;;;5.38;;
64832;SDS011;51290;45.060;38.948;2022-12-29T03:56:08;10.45;;;4.32;;
64832;SDS011;51290;45.060;38.948;2022-12-29T04:04:14;4.20;;;2.72;;
64832;SDS011;51290;45.060;38.948;2022-12-29T04:06:40;8.25;;;3.95;;
64832;SDS011;51290;45.060;38.948;2022-12-29T04:09:07;7.00;;;2.67;;
64832;SDS011;51290;45.060;38.948;2022-12-29T04:11:40;5.15;;;3.25;;
64832;SDS011;51290;45.060;38.948;2022-12-29T04:14:06;4.53;;;2.67;;
64832;SDS011;51290;45.060;38.948;2022-12-29T04:19:17;2.88;;;2.50;;
64832;SDS011;51290;45.060;38.948;2022-12-29T04:21:44;5.13;;;3.03;;
64832;SDS011;51290;45.060;38.948;2022-12-29T04:24:10;5.18;;;2.33;;
64832;SDS011;51290;45.060;38.948;2022-12-29T04:26:40;3.47;;;2.72;;
64832;SDS011;51290;45.060;38.948;2022-12-29T04:29:47;3.70;;;2.60;;
64832;SDS011;51290;45.060;38.948;2022-12-29T04:32:31;2.42;;;2.22;;
64832;SDS011;51290;45.060;38.948;2022-12-29T04:34:57;20.08;;;3.05;;
64832;SDS011;51290;45.060;38.948;2022-12-29T04:37:24;13.32;;;4.60;;
64832;SDS011;51290;45.060;38.948;2022-12-29T04:39:50;4.72;;;3.17;;
64832;SDS011;51290;45.060;38.948;2022-12-29T04:42:16;33.88;;;3.80;;
64832;SDS011;51290;45.060;38.948;2022-12-29T04:44:43;2.95;;;2.63;;
64832;SDS011;51290;45.060;38.948;2022-12-29T04:47:13;16.00;;;4.88;;
64832;SDS011;51290;45.060;38.948;2022-12-29T04:49:59;9.18;;;2.65;;
64832;SDS011;51290;45.060;38.948;2022-12-29T04:52:47;7.07;;;3.22;;
64832;SDS011;51290;45.060;38.948;2022-12-29T04:57:59;4.97;;;3.80;;
64832;SDS011;51290;45.060;38.948;2022-12-29T05:00:28;4.38;;;2.70;;
64832;SDS011;51290;45.060;38.948;2022-12-29T05:05:41;4.32;;;3.10;;
64832;SDS011;51290;45.060;38.948;2022-12-29T05:08:07;4.80;;;3.17;;
64832;SDS011;51290;45.060;38.948;2022-12-29T05:10:34;6.30;;;4.30;;
64832;SDS011;51290;45.060;38.948;2022-12-29T05:13:05;8.00;;;4.05;;
64832;SDS011;51290;45.060;38.948;2022-12-29T05:15:31;4.72;;;3.60;;
64832;SDS011;51290;45.060;38.948;2022-12-29T05:17:57;6.63;;;3.90;;
64832;SDS011;51290;45.060;38.948;2022-12-29T05:20:23;9.82;;;3.90;;
64832;SDS011;51290;45.060;38.948;2022-12-29T05:22:49;3.55;;;2.15;;
64832;SDS011;51290;45.060;38.948;2022-12-29T05:25:15;3.50;;;3.15;;
64832;SDS011;51290;45.060;38.948;2022-12-29T05:28:00;19.30;;;4.13;;
64832;SDS011;51290;45.060;38.948;2022-12-29T05:36:19;5.27;;;2.77;;
64832;SDS011;51290;45.060;38.948;2022-12-29T05:38:49;3.97;;;2.97;;
64832;SDS011;51290;45.060;38.948;2022-12-29T05:41:34;11.13;;;3.22;;
64832;SDS011;51290;45.060;38.948;2022-12-29T05:44:10;2.83;;;2.33;;
64832;SDS011;51290;45.060;38.948;2022-12-29T05:50:25;2.63;;;2.42;;
64832;SDS011;51290;45.060;38.948;2022-12-29T05:53:10;4.57;;;3.38;;
64832;SDS011;51290;45.060;38.948;2022-12-29T05:55:37;10.60;;;3.42;;
64832;SDS011;51290;45.060;38.948;2022-12-29T05:58:03;12.32;;;4.80;;
64832;SDS011;51290;45.060;38.948;2022-12-29T06:00:30;4.28;;;3.45;;
64832;SDS011;51290;45.060;38.948;2022-12-29T06:02:57;6.88;;;5.05;;
64832;SDS011;51290;45.060;38.948;2022-12-29T06:05:25;10.63;;;3.97;;
64832;SDS011;51290;45.060;38.948;2022-12-29T06:07:51;7.25;;;3.33;;
64832;SDS011;51290;45.060;38.948;2022-12-29T06:10:17;4.63;;;2.80;;
64832;SDS011;51290;45.060;38.948;2022-12-29T06:12:54;7.85;;;3.67;;
64832;SDS011;51290;45.060;38.948;2022-12-29T06:15:20;12.65;;;4.00;;
64832;SDS011;51290;45.060;38.948;2022-12-29T06:17:48;17.40;;;4.13;;
64832;SDS011;51290;45.060;38.948;2022-12-29T06:20:14;6.55;;;3.78;;
64832;SDS011;51290;45.060;38.948;2022-12-29T06:22:41;15.75;;;3.67;;
64832;SDS011;51290;45.060;38.948;2022-12-29T06:25:07;5.13;;;3.40;;
64832;SDS011;51290;45.060;38.948;2022-12-29T06:27:34;9.48;;;3.95;;
64832;SDS011;51290;45.060;38.948;2022-12-29T06:30:00;5.55;;;3.22;;
64832;SDS011;51290;45.060;38.948;2022-12-29T06:32:27;8.13;;;3.95;;
64832;SDS011;51290;45.060;38.948;2022-12-29T06:34:58;6.10;;;3.75;;
64832;SDS011;51290;45.060;38.948;2022-12-29T06:37:24;6.63;;;3.25;;
64832;SDS011;51290;45.060;38.948;2022-12-29T06:39:50;5.95;;;2.65;;
64832;SDS011;51290;45.060;38.948;2022-12-29T06:42:19;6.00;;;3.28;;
64832;SDS011;51290;45.060;38.948;2022-12-29T06:44:48;4.22;;;3.08;;
64832;SDS011;51290;45.060;38.948;2022-12-29T06:47:15;3.50;;;2.55;;
64832;SDS011;51290;45.060;38.948;2022-12-29T06:49:41;7.15;;;3.00;;
64832;SDS011;51290;45.060;38.948;2022-12-29T06:52:07;6.20;;;3.78;;
64832;SDS011;51290;45.060;38.948;2022-12-29T06:54:33;5.55;;;2.85;;
64832;SDS011;51290;45.060;38.948;2022-12-29T06:57:00;7.28;;;2.40;;
64832;SDS011;51290;45.060;38.948;2022-12-29T06:59:27;5.35;;;2.45;;
64832;SDS011;51290;45.060;38.948;2022-12-29T07:01:54;6.82;;;3.28;;
64832;SDS011;51290;45.060;38.948;2022-12-29T07:04:20;1.65;;;1.38;;
64832;SDS011;51290;45.060;38.948;2022-12-29T07:06:46;4.18;;;2.35;;
64832;SDS011;51290;45.060;38.948;2022-12-29T07:09:12;4.40;;;2.50;;
64832;SDS011;51290;45.060;38.948;2022-12-29T07:11:38;4.93;;;2.20;;
64832;SDS011;51290;45.060;38.948;2022-12-29T07:14:04;7.50;;;3.92;;
64832;SDS011;51290;45.060;38.948;2022-12-29T07:16:31;6.25;;;3.08;;
64832;SDS011;51290;45.060;38.948;2022-12-29T07:18:57;4.97;;;2.53;;
64832;SDS011;51290;45.060;38.948;2022-12-29T07:21:24;6.22;;;4.00;;
64832;SDS011;51290;45.060;38.948;2022-12-29T07:23:50;4.18;;;2.55;;
64832;SDS011;51290;45.060;38.948;2022-12-29T07:26:16;3.00;;;2.28;;
64832;SDS011;51290;45.060;38.948;2022-12-29T07:28:43;7.10;;;3.20;;
64832;SDS011;51290;45.060;38.948;2022-12-29T07:31:13;8.43;;;3.35;;
64832;SDS011;51290;45.060;38.948;2022-12-29T07:33:44;3.80;;;2.60;;
64832;SDS011;51290;45.060;38.948;2022-12-29T07:36:11;4.10;;;3.45;;
64832;SDS011;51290;45.060;38.948;2022-12-29T07:38:38;10.07;;;3.60;;
64832;SDS011;51290;45.060;38.948;2022-12-29T07:41:04;10.75;;;3.10;;
64832;SDS011;51290;45.060;38.948;2022-12-29T07:43:30;7.45;;;4.30;;
64832;SDS011;51290;45.060;38.948;2022-12-29T07:46:22;6.45;;;4.20;;
64832;SDS011;51290;45.060;38.948;2022-12-29T07:48:48;9.77;;;4.07;;
64832;SDS011;51290;45.060;38.948;2022-12-29T07:51:14;4.47;;;3.00;;
64832;SDS011;51290;45.060;38.948;2022-12-29T07:53:40;4.65;;;3.35;;
64832;SDS011;51290;45.060;38.948;2022-12-29T07:56:06;3.85;;;2.63;;
64832;SDS011;51290;45.060;38.948;2022-12-29T07:58:32;9.15;;;4.40;;
64832;SDS011;51290;45.060;38.948;2022-12-29T08:00:58;9.35;;;5.00;;
64832;SDS011;51290;45.060;38.948;2022-12-29T08:03:24;11.90;;;3.80;;
64832;SDS011;51290;45.060;38.948;2022-12-29T08:05:51;8.32;;;4.15;;
64832;SDS011;51290;45.060;38.948;2022-12-29T08:08:17;8.73;;;5.57;;
64832;SDS011;51290;45.060;38.948;2022-12-29T08:10:43;4.93;;;3.25;;
64832;SDS011;51290;45.060;38.948;2022-12-29T08:13:09;6.75;;;3.42;;
64832;SDS011;51290;45.060;38.948;2022-12-29T08:15:36;7.95;;;4.03;;
64832;SDS011;51290;45.060;38.948;2022-12-29T08:18:03;7.47;;;4.30;;
64832;SDS011;51290;45.060;38.948;2022-12-29T08:23:18;7.03;;;3.63;;
64832;SDS011;51290;45.060;38.948;2022-12-29T08:25:44;4.25;;;1.98;;
64832;SDS011;51290;45.060;38.948;2022-12-29T08:28:10;12.45;;;3.45;;
64832;SDS011;51290;45.060;38.948;2022-12-29T08:30:36;5.30;;;2.95;;
64832;SDS011;51290;45.060;38.948;2022-12-29T08:33:02;11.55;;;4.38;;
64832;SDS011;51290;45.060;38.948;2022-12-29T08:35:28;15.82;;;3.25;;
64832;SDS011;51290;45.060;38.948;2022-12-29T08:38:14;20.35;;;4.70;;
64832;SDS011;51290;45.060;38.948;2022-12-29T08:40:40;3.03;;;1.88;;
64832;SDS011;51290;45.060;38.948;2022-12-29T08:43:06;3.45;;;2.28;;
64832;SDS011;51290;45.060;38.948;2022-12-29T08:45:32;6.68;;;3.00;;
64832;SDS011;51290;45.060;38.948;2022-12-29T08:47:58;4.32;;;2.78;;
64832;SDS011;51290;45.060;38.948;2022-12-29T08:50:24;11.43;;;2.88;;
64832;SDS011;51290;45.060;38.948;2022-12-29T08:52:51;7.55;;;2.58;;
64832;SDS011;51290;45.060;38.948;2022-12-29T08:55:17;4.85;;;2.85;;
64832;SDS011;51290;45.060;38.948;2022-12-29T08:57:43;15.65;;;3.17;;
64832;SDS011;51290;45.060;38.948;2022-12-29T09:00:15;3.70;;;2.33;;
64832;SDS011;51290;45.060;38.948;2022-12-29T09:02:41;2.97;;;1.83;;
64832;SDS011;51290;45.060;38.948;2022-12-29T09:05:08;3.75;;;2.35;;
64832;SDS011;51290;45.060;38.948;2022-12-29T09:07:35;4.22;;;2.60;;
64832;SDS011;51290;45.060;38.948;2022-12-29T09:10:01;4.03;;;1.65;;
64832;SDS011;51290;45.060;38.948;2022-12-29T09:12:27;1.70;;;1.60;;
64832;SDS011;51290;45.060;38.948;2022-12-29T09:14:53;0.88;;;0.85;;
64832;SDS011;51290;45.060;38.948;2022-12-29T09:17:19;4.45;;;2.05;;
64832;SDS011;51290;45.060;38.948;2022-12-29T09:20:04;5.47;;;1.92;;
64832;SDS011;51290;45.060;38.948;2022-12-29T09:22:30;4.00;;;1.23;;
64832;SDS011;51290;45.060;38.948;2022-12-29T09:24:56;2.05;;;1.35;;
64832;SDS011;51290;45.060;38.948;2022-12-29T09:27:22;15.60;;;2.75;;
64832;SDS011;51290;45.060;38.948;2022-12-29T09:29:48;3.72;;;2.33;;
64832;SDS011;51290;45.060;38.948;2022-12-29T09:32:14;2.22;;;1.85;;
64832;SDS011;51290;45.060;38.948;2022-12-29T09:34:40;4.13;;;1.67;;
64832;SDS011;51290;45.060;38.948;2022-12-29T09:37:06;6.55;;;2.05;;
64832;SDS011;51290;45.060;38.948;2022-12-29T09:39:32;1.95;;;1.80;;
64832;SDS011;51290;45.060;38.948;2022-12-29T09:47:28;10.27;;;3.05;;
64832;SDS011;51290;45.060;38.948;2022-12-29T09:50:00;1.48;;;1.38;;
64832;SDS011;51290;45.060;38.948;2022-12-29T09:52:35;5.10;;;1.48;;
64832;SDS011;51290;45.060;38.948;2022-12-29T09:55:14;2.85;;;1.20;;
64832;SDS011;51290;45.060;38.948;2022-12-29T09:57:49;3.78;;;1.88;;
64832;SDS011;51290;45.060;38.948;2022-12-29T10:00:26;3.00;;;1.95;;
64832;SDS011;51290;45.060;38.948;2022-12-29T10:03:05;15.63;;;8.55;;
64832;SDS011;51290;45.060;38.948;2022-12-29T10:11:33;89.63;;;33.90;;
64832;SDS011;51290;45.060;38.948;2022-12-29T10:25:19;319.98;;;65.35;;
64832;SDS011;51290;45.060;38.948;2022-12-29T10:27:49;838.83;;;360.98;;
64832;SDS011;51290;45.060;38.948;2022-12-29T10:30:16;1132.20;;;395.20;;
64832;SDS011;51290;45.060;38.948;2022-12-29T10:35:21;1330.55;;;411.58;;
64832;SDS011;51290;45.060;38.948;2022-12-29T10:37:55;327.00;;;138.13;;
64832;SDS011;51290;45.060;38.948;2022-12-29T10:40:26;980.17;;;348.48;;
64832;SDS011;51290;45.060;38.948;2022-12-29T10:42:58;1022.78;;;349.40;;
64832;SDS011;51290;45.060;38.948;2022-12-29T10:45:28;323.85;;;153.60;;
64832;SDS011;51290;45.060;38.948;2022-12-29T10:47:58;822.35;;;388.73;;
64832;SDS011;51290;45.060;38.948;2022-12-29T10:50:29;948.42;;;432.10;;
64832;SDS011;51290;45.060;38.948;2022-12-29T10:52:57;1464.43;;;537.53;;
64832;SDS011;51290;45.060;38.948;2022-12-29T10:55:27;230.80;;;81.07;;
64832;SDS011;51290;45.060;38.948;2022-12-29T10:57:59;759.67;;;285.13;;
64832;SDS011;51290;45.060;38.948;2022-12-29T11:00:30;1132.75;;;455.10;;
64832;SDS011;51290;45.060;38.948;2022-12-29T11:03:01;1059.45;;;386.48;;
64832;SDS011;51290;45.060;38.948;2022-12-29T11:08:36;136.15;;;48.28;;
64832;SDS011;51290;45.060;38.948;2022-12-29T11:11:09;76.68;;;28.60;;
64832;SDS011;51290;45.060;38.948;2022-12-29T11:13:46;202.93;;;80.72;;
64832;SDS011;51290;45.060;38.948;2022-12-29T11:16:14;4.32;;;2.40;;
64832;SDS011;51290;45.060;38.948;2022-12-29T11:18:52;130.27;;;52.47;;
64832;SDS011;51290;45.060;38.948;2022-12-29T11:24:05;41.80;;;24.95;;
64832;SDS011;51290;45.060;38.948;2022-12-29T11:26:43;149.27;;;77.05;;
64832;SDS011;51290;45.060;38.948;2022-12-29T11:31:42;3.83;;;3.50;;
64832;SDS011;51290;45.060;38.948;2022-12-29T11:34:16;34.88;;;19.80;;
64832;SDS011;51290;45.060;38.948;2022-12-29T11:36:51;173.38;;;77.47;;
64832;SDS011;51290;45.060;38.948;2022-12-29T11:39:40;45.00;;;24.92;;
64832;SDS011;51290;45.060;38.948;2022-12-29T11:42:16;1.30;;;1.17;;
64832;SDS011;51290;45.060;38.948;2022-12-29T11:44:44;18.15;;;4.65;;
64832;SDS011;51290;45.060;38.948;2022-12-29T11:47:19;1.67;;;1.58;;
64832;SDS011;51290;45.060;38.948;2022-12-29T11:49:57;3.70;;;1.52;;
64832;SDS011;51290;45.060;38.948;2022-12-29T11:52:26;1.80;;;1.52;;
64832;SDS011;51290;45.060;38.948;2022-12-29T11:54:55;2.25;;;1.65;;
64832;SDS011;51290;45.060;38.948;2022-12-29T11:57:25;2.80;;;1.90;;
64832;SDS011;51290;45.060;38.948;2022-12-29T11:59:54;2.20;;;1.75;;
64832;SDS011;51290;45.060;38.948;2022-12-29T12:05:19;3.30;;;2.30;;
64832;SDS011;51290;45.060;38.948;2022-12-29T12:07:56;1.95;;;1.77;;
64832;SDS011;51290;45.060;38.948;2022-12-29T12:10:48;1.25;;;1.15;;
64832;SDS011;51290;45.060;38.948;2022-12-29T12:13:23;1.38;;;1.30;;
64832;SDS011;51290;45.060;38.948;2022-12-29T12:18:45;2.67;;;1.52;;
64832;SDS011;51290;45.060;38.948;2022-12-29T12:21:58;1.40;;;1.30;;
64832;SDS011;51290;45.060;38.948;2022-12-29T12:27:09;4.57;;;2.15;;
64832;SDS011;51290;45.060;38.948;2022-12-29T12:30:03;2.67;;;1.83;;
64832;SDS011;51290;45.060;38.948;2022-12-29T12:35:12;1.48;;;1.02;;
64832;SDS011;51290;45.060;38.948;2022-12-29T12:40:44;1.60;;;1.50;;
64832;SDS011;51290;45.060;38.948;2022-12-29T12:43:37;2.38;;;1.98;;
64832;SDS011;51290;45.060;38.948;2022-12-29T12:54:32;4.88;;;1.30;;
64832;SDS011;51290;45.060;38.948;2022-12-29T12:59:52;2.10;;;1.33;;
64832;SDS011;51290;45.060;38.948;2022-12-29T13:05:19;1.65;;;1.48;;
64832;SDS011;51290;45.060;38.948;2022-12-29T13:13:10;10.25;;;1.33;;
64832;SDS011;51290;45.060;38.948;2022-12-29T13:16:01;1.27;;;1.08;;
64832;SDS011;51290;45.060;38.948;2022-12-29T13:26:45;1.45;;;1.25;;
64832;SDS011;51290;45.060;38.948;2022-12-29T13:29:23;2.30;;;1.60;;
64832;SDS011;51290;45.060;38.948;2022-12-29T13:32:32;1.30;;;1.20;;
64832;SDS011;51290;45.060;38.948;2022-12-29T13:35:14;2.00;;;1.58;;
64832;SDS011;51290;45.060;38.948;2022-12-29T13:40:32;2.60;;;1.50;;
64832;SDS011;51290;45.060;38.948;2022-12-29T13:43:04;3.60;;;1.83;;
64832;SDS011;51290;45.060;38.948;2022-12-29T13:45:31;2.20;;;1.42;;
64832;SDS011;51290;45.060;38.948;2022-12-29T13:48:03;1.38;;;1.27;;
64832;SDS011;51290;45.060;38.948;2022-12-29T13:50:38;2.00;;;1.50;;
64832;SDS011;51290;45.060;38.948;2022-12-29T13:53:13;2.88;;;1.73;;
64832;SDS011;51290;45.060;38.948;2022-12-29T13:55:51;1.67;;;1.50;;
64832;SDS011;51290;45.060;38.948;2022-12-29T13:58:34;2.75;;;1.40;;
64832;SDS011;51290;45.060;38.948;2022-12-29T14:03:50;8.80;;;2.75;;
64832;SDS011;51290;45.060;38.948;2022-12-29T14:06:25;3.85;;;2.40;;
64832;SDS011;51290;45.060;38.948;2022-12-29T14:08:57;14.55;;;4.68;;
64832;SDS011;51290;45.060;38.948;2022-12-29T14:11:34;6.68;;;4.03;;
64832;SDS011;51290;45.060;38.948;2022-12-29T14:14:12;7.78;;;3.55;;
64832;SDS011;51290;45.060;38.948;2022-12-29T14:16:46;7.68;;;3.25;;
64832;SDS011;51290;45.060;38.948;2022-12-29T14:19:18;8.07;;;3.58;;
64832;SDS011;51290;45.060;38.948;2022-12-29T14:21:53;13.48;;;3.75;;
64832;SDS011;51290;45.060;38.948;2022-12-29T14:34:54;2.33;;;2.13;;
64832;SDS011;51290;45.060;38.948;2022-12-29T14:42:32;4.22;;;2.38;;
64832;SDS011;51290;45.060;38.948;2022-12-29T14:50:02;4.47;;;2.13;;
64832;SDS011;51290;45.060;38.948;2022-12-29T14:57:48;7.50;;;3.38;;
64832;SDS011;51290;45.060;38.948;2022-12-29T15:00:35;7.75;;;2.90;;
64832;SDS011;51290;45.060;38.948;2022-12-29T15:03:12;4.80;;;1.85;;
64832;SDS011;51290;45.060;38.948;2022-12-29T15:05:48;2.72;;;1.85;;
64832;SDS011;51290;45.060;38.948;2022-12-29T15:08:26;12.77;;;3.65;;
64832;SDS011;51290;45.060;38.948;2022-12-29T15:11:00;4.00;;;2.30;;
64832;SDS011;51290;45.060;38.948;2022-12-29T15:13:34;7.68;;;3.83;;
64832;SDS011;51290;45.060;38.948;2022-12-29T15:16:05;5.70;;;2.75;;
64832;SDS011;51290;45.060;38.948;2022-12-29T15:18:45;8.63;;;3.80;;
64832;SDS011;51290;45.060;38.948;2022-12-29T15:21:12;4.95;;;3.28;;
64832;SDS011;51290;45.060;38.948;2022-12-29T15:23:39;5.35;;;3.15;;
64832;SDS011;51290;45.060;38.948;2022-12-29T15:26:09;7.07;;;3.38;;
64832;SDS011;51290;45.060;38.948;2022-12-29T15:31:13;14.32;;;2.72;;
64832;SDS011;51290;45.060;38.948;2022-12-29T15:33:42;8.75;;;3.65;;
64832;SDS011;51290;45.060;38.948;2022-12-29T15:36:22;10.45;;;3.10;;
64832;SDS011;51290;45.060;38.948;2022-12-29T15:38:53;7.53;;;3.03;;
64832;SDS011;51290;45.060;38.948;2022-12-29T15:41:27;6.43;;;3.25;;
64832;SDS011;51290;45.060;38.948;2022-12-29T15:44:20;6.82;;;3.22;;
64832;SDS011;51290;45.060;38.948;2022-12-29T15:46:49;4.70;;;2.08;;
64832;SDS011;51290;45.060;38.948;2022-12-29T15:49:15;5.07;;;2.85;;
64832;SDS011;51290;45.060;38.948;2022-12-29T15:51:41;5.10;;;2.30;;
64832;SDS011;51290;45.060;38.948;2022-12-29T15:54:18;12.63;;;3.10;;
64832;SDS011;51290;45.060;38.948;2022-12-29T15:56:46;3.50;;;2.22;;
64832;SDS011;51290;45.060;38.948;2022-12-29T15:59:27;3.35;;;1.92;;
64832;SDS011;51290;45.060;38.948;2022-12-29T16:01:55;4.55;;;2.33;;
64832;SDS011;51290;45.060;38.948;2022-12-29T16:04:22;8.93;;;3.33;;
64832;SDS011;51290;45.060;38.948;2022-12-29T16:07:00;3.70;;;2.30;;
64832;SDS011;51290;45.060;38.948;2022-12-29T16:11:59;4.43;;;2.10;;
64832;SDS011;51290;45.060;38.948;2022-12-29T16:17:05;6.03;;;2.90;;
64832;SDS011;51290;45.060;38.948;2022-12-29T16:19:35;4.95;;;2.38;;
64832;SDS011;51290;45.060;38.948;2022-12-29T16:22:04;7.82;;;3.35;;
64832;SDS011;51290;45.060;38.948;2022-12-29T16:24:42;3.58;;;2.05;;
64832;SDS011;51290;45.060;38.948;2022-12-29T16:27:09;3.10;;;1.95;;
64832;SDS011;51290;45.060;38.948;2022-12-29T16:29:46;5.43;;;2.30;;
64832;SDS011;51290;45.060;38.948;2022-12-29T16:32:24;3.88;;;1.77;;
64832;SDS011;51290;45.060;38.948;2022-12-29T16:35:02;4.55;;;2.75;;
64832;SDS011;51290;45.060;38.948;2022-12-29T16:40:23;5.75;;;2.50;;
64832;SDS011;51290;45.060;38.948;2022-12-29T16:42:57;3.50;;;1.50;;
64832;SDS011;51290;45.060;38.948;2022-12-29T16:48:33;4.25;;;1.90;;
64832;SDS011;51290;45.060;38.948;2022-12-29T16:53:32;3.50;;;2.08;;
64832;SDS011;51290;45.060;38.948;2022-12-29T16:56:08;2.50;;;1.52;;
64832;SDS011;51290;45.060;38.948;2022-12-29T16:59:35;1.00;;;1.00;;
64832;SDS011;51290;45.060;38.948;2022-12-29T17:01:57;1.38;;;1.27;;
64832;SDS011;51290;45.060;38.948;2022-12-29T17:04:25;1.67;;;1.48;;
64832;SDS011;51290;45.060;38.948;2022-12-29T17:06:51;1.83;;;1.67;;
64832;SDS011;51290;45.060;38.948;2022-12-29T17:09:21;7.30;;;2.38;;
64832;SDS011;51290;45.060;38.948;2022-12-29T17:11:49;2.58;;;1.08;;
64832;SDS011;51290;45.060;38.948;2022-12-29T17:14:23;1.95;;;1.63;;
64832;SDS011;51290;45.060;38.948;2022-12-29T17:16:57;3.13;;;1.63;;
64832;SDS011;51290;45.060;38.948;2022-12-29T17:19:29;3.00;;;1.98;;
64832;SDS011;51290;45.060;38.948;2022-12-29T17:21:57;2.75;;;2.38;;
64832;SDS011;51290;45.060;38.948;2022-12-29T17:24:23;3.00;;;2.17;;
64832;SDS011;51290;45.060;38.948;2022-12-29T17:26:51;7.22;;;3.40;;
64832;SDS011;51290;45.060;38.948;2022-12-29T17:29:29;2.55;;;1.70;;
64832;SDS011;51290;45.060;38.948;2022-12-29T17:31:55;3.72;;;2.65;;
64832;SDS011;51290;45.060;38.948;2022-12-29T17:34:21;2.63;;;1.90;;
64832;SDS011;51290;45.060;38.948;2022-12-29T17:36:48;2.55;;;1.35;;
64832;SDS011;51290;45.060;38.948;2022-12-29T17:39:14;2.53;;;1.83;;
64832;SDS011;51290;45.060;38.948;2022-12-29T17:41:40;2.42;;;1.90;;
64832;SDS011;51290;45.060;38.948;2022-12-29T17:44:06;4.18;;;2.38;;
64832;SDS011;51290;45.060;38.948;2022-12-29T17:47:21;2.08;;;1.38;;
64832;SDS011;51290;45.060;38.948;2022-12-29T17:49:47;2.20;;;1.55;;
64832;SDS011;51290;45.060;38.948;2022-12-29T17:52:13;1.85;;;1.63;;
64832;SDS011;51290;45.060;38.948;2022-12-29T17:54:42;1.95;;;1.77;;
64832;SDS011;51290;45.060;38.948;2022-12-29T17:57:15;2.97;;;2.30;;
64832;SDS011;51290;45.060;38.948;2022-12-29T17:59:42;3.15;;;1.70;;
64832;SDS011;51290;45.060;38.948;2022-12-29T18:04:51;3.22;;;1.80;;
64832;SDS011;51290;45.060;38.948;2022-12-29T18:07:18;4.18;;;2.00;;
64832;SDS011;51290;45.060;38.948;2022-12-29T18:09:44;1.98;;;1.75;;
64832;SDS011;51290;45.060;38.948;2022-12-29T18:12:19;1.63;;;1.48;;
64832;SDS011;51290;45.060;38.948;2022-12-29T18:14:52;2.78;;;1.73;;